Time;durP1;ratioP1;P1;durP2;ratioP2;P2;SDS_P1;SDS_P2;PMS_P1;PMS_P2;Temp;Humidity;BMP_temperature;BMP_pressure;BME280_temperature;BME280_humidity;BME280_pressure;Samples;Min_cycle;Max_cycle;Signal;HPM_P1;HPM_P2
2022/09/04 00:01:57;;;;;;;4.40;2.50;;;26.70;55.00;;;;;;4912135;29;20668;-71
2022/09/04 00:04:51;;;;;;;3.25;2.70;;;26.70;55.00;;;;;;4915087;29;20438;-72
2022/09/04 00:07:29;;;;;;;7.75;3.00;;;26.80;55.10;;;;;;4900612;29;20378;-72
2022/09/04 00:10:10;;;;;;;3.88;2.97;;;26.70;55.00;;;;;;4916051;29;20123;-71
2022/09/04 00:12:54;;;;;;;4.30;3.08;;;26.60;55.00;;;;;;4916342;29;20171;-71
2022/09/04 00:15:35;;;;;;;5.50;3.00;;;26.80;55.10;;;;;;4915802;29;20075;-72
2022/09/04 00:18:07;;;;;;;3.55;3.22;;;26.60;55.00;;;;;;4925121;29;20138;-72
2022/09/04 00:20:49;;;;;;;3.10;2.80;;;26.60;55.00;;;;;;4935135;29;20360;-71
2022/09/04 00:23:18;;;;;;;6.87;3.23;;;26.50;55.10;;;;;;4989346;28;20047;-72
2022/09/04 00:25:49;;;;;;;3.90;2.90;;;26.70;55.10;;;;;;4995492;28;20042;-71
2022/09/04 00:28:24;;;;;;;3.55;2.78;;;26.60;55.00;;;;;;5014183;28;20363;-71
2022/09/04 00:31:08;;;;;;;5.50;3.00;;;26.60;55.00;;;;;;5015167;28;20029;-71
2022/09/04 00:34:00;;;;;;;4.68;2.83;;;26.60;55.10;;;;;;5015055;28;20040;-71
2022/09/04 00:36:28;;;;;;;8.20;3.22;;;26.60;55.00;;;;;;5014332;28;20140;-71
2022/09/04 00:39:06;;;;;;;6.60;2.70;;;26.50;55.20;;;;;;5012739;28;20121;-71
2022/09/04 00:42:00;;;;;;;4.60;2.75;;;26.60;55.20;;;;;;5014800;28;20068;-71
2022/09/04 00:44:26;;;;;;;;;;;26.50;55.30;;;;;;5015211;28;20037;-71
2022/09/04 00:47:19;;;;;;;2.83;2.58;;;26.40;55.30;;;;;;5014702;28;19921;-71
2022/09/04 00:49:58;;;;;;;3.40;2.78;;;26.50;55.40;;;;;;5014568;28;20117;-71
2022/09/04 00:52:43;;;;;;;7.45;3.25;;;26.50;55.30;;;;;;5014700;28;20022;-70
2022/09/04 00:55:50;;;;;;;3.08;2.72;;;26.60;55.40;;;;;;5028689;28;20132;-71
2022/09/04 00:58:41;;;;;;;4.90;2.83;;;26.60;55.30;;;;;;5014708;28;20061;-71
2022/09/04 01:01:13;;;;;;;4.90;3.40;;;26.60;55.40;;;;;;5012859;28;20101;-71
2022/09/04 01:04:24;;;;;;;3.53;3.00;;;26.50;55.40;;;;;;5014738;28;20041;-69
2022/09/04 01:07:02;;;;;;;7.80;2.72;;;26.60;55.30;;;;;;5011204;28;20065;-71
2022/09/04 01:09:46;;;;;;;2.75;2.53;;;26.50;55.40;;;;;;5014156;28;20092;-71
2022/09/04 01:12:32;;;;;;;5.40;2.25;;;26.70;55.40;;;;;;5014371;28;20033;-71
2022/09/04 01:15:25;;;;;;;6.18;2.55;;;26.70;55.30;;;;;;5011292;28;20514;-71
2022/09/04 01:18:13;;;;;;;2.83;2.40;;;26.60;55.30;;;;;;5013910;28;20062;-71
2022/09/04 01:20:46;;;;;;;3.33;3.00;;;26.60;55.30;;;;;;5013927;28;20057;-71
2022/09/04 01:23:44;;;;;;;4.88;2.97;;;26.50;55.30;;;;;;5014065;28;20088;-71
2022/09/04 01:26:31;;;;;;;3.75;2.60;;;26.60;55.30;;;;;;5013743;28;20050;-70
2022/09/04 01:29:48;;;;;;;3.35;2.65;;;26.60;55.30;;;;;;5013739;28;20033;-71
2022/09/04 01:32:53;;;;;;;4.38;2.40;;;26.40;55.30;;;;;;4991723;28;20692;-71
2022/09/04 01:35:31;;;;;;;3.47;2.80;;;26.40;55.30;;;;;;4913118;29;20457;-71
2022/09/04 01:38:05;;;;;;;4.10;2.63;;;26.40;55.30;;;;;;4914846;29;20078;-71
2022/09/04 01:40:48;;;;;;;3.60;3.05;;;26.40;55.40;;;;;;4914767;29;20434;-71
2022/09/04 01:43:19;;;;;;;3.65;2.75;;;26.40;55.50;;;;;;4914746;29;20051;-71
2022/09/04 01:46:06;;;;;;;5.78;2.58;;;26.30;55.40;;;;;;4914786;29;20056;-70
2022/09/04 01:49:11;;;;;;;4.95;2.90;;;26.40;55.40;;;;;;4914738;29;20127;-71
2022/09/04 01:51:55;;;;;;;3.65;2.83;;;26.50;55.40;;;;;;4914436;29;20036;-71
2022/09/04 01:54:33;;;;;;;3.35;2.55;;;26.50;55.50;;;;;;4914635;29;20351;-71
2022/09/04 01:57:21;;;;;;;6.78;2.70;;;26.50;55.50;;;;;;4914619;29;20044;-71
2022/09/04 02:00:07;;;;;;;3.30;2.30;;;26.60;55.50;;;;;;4914180;29;20458;-71
2022/09/04 02:03:05;;;;;;;4.90;2.55;;;26.40;55.40;;;;;;4910631;29;20448;-71
2022/09/04 02:05:57;;;;;;;6.28;3.42;;;26.40;55.40;;;;;;4952215;29;20051;-72
2022/09/04 02:08:41;;;;;;;2.95;2.63;;;26.40;55.40;;;;;;4936260;29;20047;-71
2022/09/04 02:11:18;;;;;;;4.60;2.78;;;26.50;55.40;;;;;;4957179;28;20035;-71
2022/09/04 02:14:05;;;;;;;6.80;3.20;;;26.50;55.40;;;;;;5013182;28;20073;-71
2022/09/04 02:16:43;;;;;;;2.65;2.45;;;26.60;55.30;;;;;;5011872;28;20030;-71
2022/09/04 02:19:29;;;;;;;6.43;3.60;;;26.40;55.30;;;;;;5013049;28;20040;-71
2022/09/04 02:22:05;;;;;;;3.25;2.53;;;26.30;55.30;;;;;;5011784;28;20055;-71
2022/09/04 02:24:57;;;;;;;3.38;2.65;;;26.30;55.30;;;;;;5012693;28;20533;-71
2022/09/04 02:28:04;;;;;;;4.47;2.92;;;26.40;55.30;;;;;;5012233;28;20125;-71
2022/09/04 02:30:40;;;;;;;3.50;2.90;;;26.30;55.30;;;;;;4990695;28;20100;-71
2022/09/04 02:33:36;;;;;;;7.20;3.17;;;26.30;55.30;;;;;;4989456;28;20117;-71
2022/09/04 02:36:40;;;;;;;6.13;2.92;;;26.40;55.30;;;;;;4970404;28;20543;-71
2022/09/04 02:39:34;;;;;;;5.38;3.13;;;26.30;55.30;;;;;;4932169;29;20044;-71
2022/09/04 02:42:16;;;;;;;3.33;2.97;;;26.40;55.40;;;;;;4932332;29;20058;-71
2022/09/04 02:44:57;;;;;;;;;;;26.30;55.40;;;;;;4933140;29;20078;-71
2022/09/04 02:47:32;;;;;;;3.50;3.03;;;26.30;55.40;;;;;;4932322;29;20013;-71
2022/09/04 02:50:13;;;;;;;5.10;3.47;;;26.40;55.40;;;;;;4932357;29;20047;-71
2022/09/04 02:53:07;;;;;;;4.25;3.28;;;26.40;55.40;;;;;;4948188;28;20147;-71
2022/09/04 02:56:01;;;;;;;3.38;2.72;;;26.30;55.30;;;;;;4932333;29;20050;-71
2022/09/04 02:58:51;;;;;;;6.03;3.60;;;26.30;55.40;;;;;;4932152;29;20064;-71
2022/09/04 03:01:51;;;;;;;4.15;3.75;;;26.50;55.30;;;;;;4941853;29;20078;-71
2022/09/04 03:04:30;;;;;;;4.15;3.50;;;26.50;55.30;;;;;;4951266;29;20057;-71
2022/09/04 03:07:16;;;;;;;7.43;3.15;;;26.40;55.30;;;;;;4951264;29;20055;-71
2022/09/04 03:09:50;;;;;;;4.15;3.22;;;26.40;55.30;;;;;;4951323;29;20075;-71
2022/09/04 03:12:36;;;;;;;6.88;3.35;;;26.30;55.30;;;;;;4951422;29;20060;-70
2022/09/04 03:15:46;;;;;;;6.15;3.40;;;26.40;55.30;;;;;;4952951;28;20404;-71
2022/09/04 03:18:33;;;;;;;5.35;3.05;;;26.40;55.10;;;;;;4932168;29;20110;-71
2022/09/04 03:21:11;;;;;;;3.97;2.90;;;26.50;55.00;;;;;;4931977;29;20489;-71
2022/09/04 03:24:01;;;;;;;3.47;2.55;;;26.50;54.90;;;;;;4931923;29;20461;-69
2022/09/04 03:26:33;;;;;;;4.97;3.15;;;26.50;54.90;;;;;;4932077;29;20095;-71
2022/09/04 03:29:14;;;;;;;6.13;3.13;;;26.50;54.80;;;;;;4931813;29;20047;-70
2022/09/04 03:32:05;;;;;;;4.53;3.58;;;26.60;54.60;;;;;;4934784;29;20144;-70
2022/09/04 03:35:04;;;;;;;3.60;3.30;;;26.60;54.60;;;;;;4950826;29;20199;-71
2022/09/04 03:37:48;;;;;;;4.80;3.00;;;26.50;54.60;;;;;;4950701;28;20492;-71
2022/09/04 03:40:32;;;;;;;4.78;3.03;;;26.40;54.70;;;;;;4950596;29;20456;-70
2022/09/04 03:43:17;;;;;;;4.40;3.00;;;26.50;54.80;;;;;;4950845;29;20042;-71
2022/09/04 03:45:57;;;;;;;8.68;3.08;;;26.60;54.80;;;;;;4950579;29;20095;-71
2022/09/04 03:48:45;;;;;;;5.13;3.40;;;26.40;54.70;;;;;;4950751;29;20035;-71
2022/09/04 03:51:14;;;;;;;5.43;3.05;;;26.60;54.70;;;;;;4934736;29;20217;-71
2022/09/04 03:54:23;;;;;;;4.32;2.58;;;26.70;54.50;;;;;;4968903;28;20042;-70
2022/09/04 03:57:13;;;;;;;4.05;3.50;;;26.60;54.40;;;;;;5008829;28;20074;-71
2022/09/04 03:59:58;;;;;;;4.95;3.13;;;26.70;54.40;;;;;;5009159;28;20038;-71
2022/09/04 04:02:44;;;;;;;4.53;2.85;;;26.60;54.40;;;;;;4992516;28;20128;-71
2022/09/04 04:05:39;;;;;;;5.43;2.80;;;26.70;54.40;;;;;;4950698;29;20755;-70
2022/09/04 04:08:28;;;;;;;5.30;2.63;;;26.80;54.40;;;;;;4912494;29;20131;-70
2022/09/04 04:11:05;;;;;;;3.40;2.45;;;26.80;54.20;;;;;;4856108;29;20045;-71
2022/09/04 04:13:34;;;;;;;6.32;2.60;;;26.90;53.90;;;;;;4856418;29;20388;-71
2022/09/04 04:16:21;;;;;;;2.83;2.13;;;26.80;53.70;;;;;;4856376;29;20053;-72
2022/09/04 04:19:09;;;;;;;3.53;2.67;;;26.90;53.70;;;;;;4856490;29;20049;-69
2022/09/04 04:21:49;;;;;;;2.17;1.98;;;26.90;53.60;;;;;;4856517;29;20098;-72
2022/09/04 04:24:39;;;;;;;4.03;2.40;;;26.90;53.50;;;;;;4856372;29;20045;-76
2022/09/04 04:27:08;;;;;;;3.92;3.03;;;26.90;56.00;;;;;;4877551;29;20101;-76
2022/09/04 04:30:15;;;;;;;5.85;2.53;;;27.30;57.90;;;;;;4866477;29;20555;-76
2022/09/04 04:32:44;;;;;;;3.25;2.80;;;27.70;57.30;;;;;;4864319;29;20049;-76
2022/09/04 04:35:34;;;;;;;3.08;2.20;;;27.60;57.00;;;;;;4853230;29;20045;-75
2022/09/04 04:38:12;;;;;;;3.42;2.65;;;27.60;53.90;;;;;;4837950;29;20050;-75
2022/09/04 04:40:58;;;;;;;3.08;2.40;;;27.50;53.00;;;;;;4837820;29;20038;-74
2022/09/04 04:43:33;;;;;;;3.58;2.63;;;27.40;52.80;;;;;;4837986;29;20058;-73
2022/09/04 04:46:41;;;;;;;3.33;2.83;;;27.40;52.90;;;;;;4907832;29;20394;-73
2022/09/04 04:49:27;;;;;;;4.20;2.92;;;27.40;52.50;;;;;;5025121;28;20050;-73
2022/09/04 04:52:15;;;;;;;4.78;2.80;;;27.40;52.20;;;;;;5015721;28;20147;-74
2022/09/04 04:54:55;;;;;;;6.97;2.75;;;27.40;51.90;;;;;;5031815;28;20497;-73
2022/09/04 04:57:45;;;;;;;4.95;3.25;;;27.40;51.60;;;;;;5031580;28;20161;-74
2022/09/04 05:00:18;;;;;;;4.00;1.50;;;27.40;51.30;;;;;;5031789;28;20061;-75
2022/09/04 05:03:06;;;;;;;2.60;2.10;;;27.50;52.20;;;;;;5031796;28;20260;-75
2022/09/04 05:06:00;;;;;;;4.28;2.13;;;27.50;52.20;;;;;;5031653;28;20064;-75
2022/09/04 05:08:49;;;;;;;2.95;1.33;;;27.50;52.30;;;;;;5031755;28;20658;-76
2022/09/04 05:11:41;;;;;;;2.30;1.70;;;27.40;52.00;;;;;;5031452;28;20509;-77
2022/09/04 05:14:07;;;;;;;1.75;1.60;;;27.50;51.40;;;;;;5027839;28;20035;-76
2022/09/04 05:17:10;;;;;;;2.28;1.73;;;27.40;50.30;;;;;;5021129;28;20060;-76
2022/09/04 05:19:57;;;;;;;3.85;2.10;;;27.50;49.30;;;;;;5019111;28;20041;-76
2022/09/04 05:22:32;;;;;;;4.47;2.72;;;27.40;50.30;;;;;;5002635;28;20046;-75
2022/09/04 05:25:19;;;;;;;2.10;1.88;;;27.40;51.90;;;;;;5011146;28;20494;-77
2022/09/04 05:28:04;;;;;;;1.60;1.50;;;27.30;51.50;;;;;;5013834;28;20060;-79
2022/09/04 05:31:08;;;;;;;4.20;3.17;;;27.40;53.70;;;;;;5013463;28;20034;-76
2022/09/04 05:34:05;;;;;;;2.67;1.95;;;27.50;52.30;;;;;;5013301;28;20038;-77
2022/09/04 05:36:56;;;;;;;3.00;1.77;;;27.60;51.40;;;;;;5011408;28;20022;-78
2022/09/04 05:39:29;;;;;;;6.38;3.58;;;27.50;50.80;;;;;;5015579;28;20371;-78
2022/09/04 05:42:04;;;;;;;4.40;3.17;;;27.50;52.20;;;;;;5012613;28;20034;-76
2022/09/04 05:44:49;;;;;;;3.35;2.05;;;27.50;51.60;;;;;;5010802;28;20034;-76
2022/09/04 05:47:35;;;;;;;1.67;1.58;;;27.40;50.00;;;;;;5011780;28;20116;-77
2022/09/04 05:50:33;;;;;;;1.98;1.73;;;27.30;48.80;;;;;;5013240;28;20026;-78
2022/09/04 05:53:28;;;;;;;4.53;3.55;;;27.40;48.30;;;;;;5012833;28;20539;-72
2022/09/04 05:56:15;;;;;;;2.47;2.28;;;27.30;49.00;;;;;;4994584;28;20054;-71
2022/09/04 05:58:41;;;;;;;8.35;3.15;;;27.30;48.70;;;;;;5000617;28;20062;-71
2022/09/04 06:01:33;;;;;;;3.50;2.80;;;27.40;50.00;;;;;;5000843;28;20180;-72
2022/09/04 06:04:23;;;;;;;4.07;2.72;;;27.50;51.10;;;;;;5000986;28;20106;-72
2022/09/04 06:07:28;;;;;;;5.78;2.95;;;27.40;49.90;;;;;;4995139;28;20506;-73
2022/09/04 06:10:02;;;;;;;3.25;2.50;;;27.50;49.40;;;;;;4931502;29;20051;-74
2022/09/04 06:12:45;;;;;;;3.67;2.42;;;27.60;49.30;;;;;;4934161;29;20043;-73
2022/09/04 06:15:34;;;;;;;3.00;2.63;;;27.50;49.50;;;;;;4952384;28;20455;-73
2022/09/04 06:18:30;;;;;;;4.38;3.30;;;27.50;49.30;;;;;;4934996;28;20031;-73
2022/09/04 06:21:00;;;;;;;2.47;2.10;;;27.60;49.40;;;;;;4931052;29;20059;-72
2022/09/04 06:23:34;;;;;;;3.15;2.20;;;27.60;49.40;;;;;;4920545;29;20119;-73
2022/09/04 06:26:08;;;;;;;3.03;2.72;;;27.60;49.20;;;;;;4928866;29;20044;-73
2022/09/04 06:28:43;;;;;;;3.25;2.72;;;27.50;47.70;;;;;;4937056;29;20118;-72
2022/09/04 06:31:18;;;;;;;2.83;2.38;;;27.60;49.30;;;;;;4952190;28;20469;-74
2022/09/04 06:33:56;;;;;;;3.17;2.90;;;27.60;49.30;;;;;;4990776;28;20050;-69
2022/09/04 06:36:37;;;;;;;2.53;2.33;;;27.70;49.30;;;;;;4990875;28;20411;-71
2022/09/04 06:39:33;;;;;;;2.92;2.22;;;27.70;49.80;;;;;;4990710;28;20097;-72
2022/09/04 06:42:22;;;;;;;2.38;2.17;;;27.70;49.80;;;;;;4990810;28;20042;-73
2022/09/04 06:45:21;;;;;;;3.10;2.70;;;27.60;50.80;;;;;;4990193;28;20037;-73
2022/09/04 06:48:03;;;;;;;1.77;1.60;;;27.60;50.80;;;;;;4990025;28;20658;-73
2022/09/04 06:50:32;;;;;;;3.22;2.17;;;27.60;51.40;;;;;;4990623;28;20034;-72
2022/09/04 06:53:15;;;;;;;7.53;2.33;;;27.70;51.40;;;;;;4989827;28;20039;-73
2022/09/04 06:55:56;;;;;;;3.22;1.73;;;27.50;51.60;;;;;;4990549;28;20045;-73
2022/09/04 06:58:45;;;;;;;2.95;1.92;;;27.60;48.40;;;;;;4990098;28;20058;-71
2022/09/04 07:01:52;;;;;;;2.08;1.60;;;27.60;51.60;;;;;;4990369;28;20492;-74
2022/09/04 07:04:18;;;;;;;2.03;1.67;;;27.60;51.60;;;;;;4989895;28;20661;-71
2022/09/04 07:06:57;;;;;;;2.22;1.75;;;27.60;51.60;;;;;;4989986;28;20382;-72
2022/09/04 07:09:26;;;;;;;3.30;2.10;;;27.60;51.90;;;;;;4990157;28;20129;-71
2022/09/04 07:12:17;;;;;;;1.95;1.70;;;27.60;52.00;;;;;;4973188;28;20887;-71
2022/09/04 07:14:55;;;;;;;2.22;1.80;;;27.70;52.40;;;;;;4989832;28;20038;-70
2022/09/04 07:17:38;;;;;;;1.90;1.63;;;27.80;49.00;;;;;;4989927;28;20053;-70
2022/09/04 07:20:21;;;;;;;2.38;1.80;;;27.70;52.00;;;;;;4988903;28;20132;-71
2022/09/04 07:23:08;;;;;;;3.40;2.17;;;27.80;51.90;;;;;;4989706;28;20054;-72
2022/09/04 07:26:02;;;;;;;2.10;1.50;;;27.80;51.70;;;;;;4992151;28;20038;-71
2022/09/04 07:28:43;;;;;;;1.55;1.42;;;27.60;51.80;;;;;;4992328;28;20031;-71
2022/09/04 07:31:32;;;;;;;2.08;1.88;;;27.70;51.80;;;;;;4992173;28;20044;-73
2022/09/04 07:34:17;;;;;;;2.85;1.92;;;27.80;51.70;;;;;;4992338;28;20042;-69
2022/09/04 07:37:25;;;;;;;2.55;1.75;;;27.60;51.80;;;;;;4992067;28;20456;-72
2022/09/04 07:40:16;;;;;;;3.25;1.83;;;27.60;51.70;;;;;;4992245;28;20424;-72
2022/09/04 07:43:33;;;;;;;6.35;1.90;;;27.80;51.70;;;;;;4992267;28;20163;-71
2022/09/04 07:46:12;;;;;;;2.53;1.80;;;27.60;51.70;;;;;;4969984;28;20403;-71
2022/09/04 07:49:04;;;;;;;2.40;1.40;;;27.60;51.60;;;;;;4970094;28;20049;-73
2022/09/04 07:51:42;;;;;;;5.88;2.05;;;27.60;51.40;;;;;;4944195;28;20104;-71
2022/09/04 07:54:43;;;;;;;2.75;2.00;;;27.60;51.10;;;;;;4970398;28;20023;-72
2022/09/04 07:57:32;;;;;;;7.05;3.22;;;27.50;48.10;;;;;;4969588;28;20563;-70
2022/09/04 08:00:12;;;;;;;7.00;3.83;;;27.50;50.20;;;;;;4953418;28;20047;-71
2022/09/04 08:02:51;;;;;;;11.05;5.47;;;27.60;50.50;;;;;;4953968;28;20098;-71
2022/09/04 08:05:28;;;;;;;4.90;3.13;;;27.50;50.20;;;;;;4970082;28;20094;-71
2022/09/04 08:08:28;;;;;;;5.65;3.08;;;27.60;50.20;;;;;;4969992;28;20050;-72
2022/09/04 08:11:18;;;;;;;4.32;3.00;;;27.60;49.90;;;;;;4969850;28;20103;-72
2022/09/04 08:14:05;;;;;;;3.20;1.92;;;27.40;49.80;;;;;;4969463;28;20052;-73
2022/09/04 08:16:46;;;;;;;7.00;4.57;;;27.50;49.90;;;;;;4970138;28;20046;-72
2022/09/04 08:19:39;;;;;;;3.05;2.03;;;27.40;50.10;;;;;;4968984;28;20042;-72
2022/09/04 08:22:10;;;;;;;7.35;2.53;;;27.40;50.00;;;;;;4979677;28;20523;-74
2022/09/04 08:25:09;;;;;;;3.07;1.73;;;27.50;49.80;;;;;;4995211;28;20395;-72
2022/09/04 08:27:41;;;;;;;2.33;1.58;;;27.50;49.80;;;;;;4994514;28;20292;-73
2022/09/04 08:30:10;;;;;;;2.05;1.45;;;27.40;49.50;;;;;;4995582;28;20153;-76
2022/09/04 08:32:46;;;;;;;2.08;1.70;;;27.50;49.40;;;;;;4994466;28;20526;-72
2022/09/04 08:35:25;;;;;;;3.75;1.80;;;27.50;46.90;;;;;;4996089;28;20030;-72
2022/09/04 08:38:17;;;;;;;2.60;1.50;;;27.50;48.90;;;;;;5014611;28;20038;-71
2022/09/04 08:41:37;;;;;;;3.35;1.88;;;27.40;48.20;;;;;;5014949;28;20487;-69
2022/09/04 08:44:06;;;;;;;1.88;1.25;;;27.50;48.00;;;;;;4992673;28;20066;-70
2022/09/04 08:46:53;;;;;;;4.97;1.98;;;27.50;48.10;;;;;;4992700;28;20133;-69
2022/09/04 08:49:40;;;;;;;2.03;1.52;;;27.50;48.20;;;;;;4915877;29;20173;-70
2022/09/04 08:52:18;;;;;;;2.28;1.50;;;27.60;48.00;;;;;;4915534;29;20734;-69
2022/09/04 08:54:57;;;;;;;2.08;1.30;;;27.60;47.70;;;;;;4915639;29;20465;-69
2022/09/04 08:58:00;;;;;;;1.20;1.15;;;27.60;46.80;;;;;;4915503;29;20099;-72
2022/09/04 09:00:54;;;;;;;1.40;1.30;;;27.60;46.90;;;;;;4915579;29;20044;-71
2022/09/04 09:03:41;;;;;;;6.72;5.50;;;27.60;46.90;;;;;;4915694;29;20132;-71
2022/09/04 09:06:37;;;;;;;6.22;5.47;;;27.60;46.80;;;;;;4915149;29;20063;-71
2022/09/04 09:09:03;;;;;;;3.47;2.65;;;27.80;47.00;;;;;;4915558;29;20054;-70
2022/09/04 09:11:59;;;;;;;3.47;2.90;;;28.10;46.20;;;;;;4915201;29;20040;-67
2022/09/04 09:14:30;;;;;;;4.40;3.95;;;27.90;45.80;;;;;;4915188;29;20143;-70
2022/09/04 09:17:15;;;;;;;5.03;2.73;;;28.00;47.30;;;;;;4913805;29;20100;-69
2022/09/04 09:19:52;;;;;;;2.92;2.58;;;28.00;47.60;;;;;;4934245;29;20048;-71
2022/09/04 09:22:39;;;;;;;3.78;2.40;;;28.00;47.10;;;;;;4934094;29;20040;-72
2022/09/04 09:25:23;;;;;;;2.35;1.42;;;27.90;43.50;;;;;;4938851;28;20034;-68
2022/09/04 09:28:04;;;;;;;4.85;1.75;;;27.90;42.60;;;;;;5013223;28;20491;-68
2022/09/04 09:31:16;;;;;;;3.10;1.35;;;27.90;41.70;;;;;;5014236;28;20037;-68
2022/09/04 09:34:10;;;;;;;2.60;1.65;;;27.70;42.00;;;;;;4991826;28;20049;-69
2022/09/04 09:37:19;;;;;;;2.25;1.70;;;27.70;42.40;;;;;;4991028;28;20050;-67
2022/09/04 09:39:56;;;;;;;2.70;1.80;;;27.90;42.10;;;;;;4991751;28;20049;-68
2022/09/04 09:42:48;;;;;;;2.35;1.70;;;27.80;41.30;;;;;;4991518;28;20574;-70
2022/09/04 09:45:36;;;;;;;3.58;1.55;;;27.80;41.20;;;;;;4991586;28;20045;-68
2022/09/04 09:48:52;;;;;;;4.45;2.00;;;27.70;41.30;;;;;;4991354;28;20070;-68
2022/09/04 09:51:56;;;;;;;2.50;1.52;;;27.80;41.60;;;;;;4991497;28;20042;-69
2022/09/04 09:54:43;;;;;;;2.42;1.70;;;27.80;41.80;;;;;;4914611;29;20467;-67
2022/09/04 09:57:37;;;;;;;2.83;1.88;;;27.80;41.80;;;;;;4914409;29;20052;-67
2022/09/04 10:00:24;;;;;;;3.25;1.90;;;27.80;40.50;;;;;;4914596;29;20052;-68
2022/09/04 10:03:34;;;;;;;6.03;1.90;;;27.80;41.30;;;;;;4897086;29;20092;-68
2022/09/04 10:06:24;;;;;;;3.33;1.88;;;27.70;41.40;;;;;;4876675;29;20414;-68
2022/09/04 10:09:06;;;;;;;4.82;2.80;;;27.90;41.90;;;;;;4876803;29;20048;-70
2022/09/04 10:11:50;;;;;;;1.60;1.40;;;27.70;44.60;;;;;;4894646;29;20053;-69
2022/09/04 10:14:54;;;;;;;1.20;0.95;;;27.90;45.90;;;;;;4886361;29;20048;-69
2022/09/04 10:17:34;;;;;;;2.47;1.77;;;28.40;52.30;;;;;;4876667;29;20049;-69
2022/09/04 10:20:12;;;;;;;2.45;1.10;;;28.70;50.10;;;;;;4876647;29;20045;-69
2022/09/04 10:23:02;;;;;;;2.60;1.95;;;28.50;44.40;;;;;;4876625;29;20783;-68
2022/09/04 10:25:43;;;;;;;4.75;2.20;;;28.50;43.20;;;;;;4891400;29;20413;-70
2022/09/04 10:28:39;;;;;;;4.28;2.65;;;28.40;41.80;;;;;;4909021;29;20118;-69
2022/09/04 10:31:20;;;;;;;3.60;2.40;;;28.40;43.60;;;;;;4922634;28;20133;-69
2022/09/04 10:34:04;;;;;;;2.25;2.00;;;28.30;38.70;;;;;;4970865;28;20049;-68
2022/09/04 10:37:02;;;;;;;3.20;2.38;;;28.20;43.60;;;;;;4970367;28;20420;-68
2022/09/04 10:42:44;;;;;;;3.65;2.30;;;28.20;43.90;;;;;;4982765;28;20459;-69
2022/09/04 10:45:25;;;;;;;4.18;2.20;;;28.30;44.30;;;;;;5012401;28;20046;-68
2022/09/04 10:48:00;;;;;;;3.72;2.28;;;28.20;42.30;;;;;;5011887;28;20112;-68
2022/09/04 10:50:35;;;;;;;2.25;1.83;;;28.10;42.70;;;;;;5012607;28;20056;-68
2022/09/04 10:53:35;;;;;;;4.88;2.67;;;28.20;44.10;;;;;;5012543;28;20038;-68
2022/09/04 10:56:15;;;;;;;4.65;2.75;;;28.10;44.70;;;;;;5012212;28;20487;-68
2022/09/04 10:59:09;;;;;;;4.80;3.42;;;28.20;44.60;;;;;;5012268;28;20045;-69
2022/09/04 11:01:53;;;;;;;7.13;2.75;;;28.20;43.60;;;;;;5012726;28;20034;-68
2022/09/04 11:04:51;;;;;;;5.90;3.40;;;28.20;43.60;;;;;;5012591;28;20026;-68
2022/09/04 11:07:45;;;;;;;9.43;3.25;;;28.10;43.00;;;;;;5011990;28;20446;-67
2022/09/04 11:10:23;;;;;;;4.53;3.40;;;28.10;45.30;;;;;;5010667;28;20109;-68
2022/09/04 11:12:55;;;;;;;8.10;3.40;;;28.20;43.90;;;;;;5011704;28;20053;-68
2022/09/04 11:15:28;;;;;;;5.33;2.90;;;28.20;45.60;;;;;;5010911;28;20415;-68
2022/09/04 11:18:10;;;;;;;4.47;3.45;;;28.20;45.30;;;;;;5012209;28;20034;-70
2022/09/04 11:21:06;;;;;;;4.32;3.45;;;28.10;44.70;;;;;;4993236;28;20111;-69
2022/09/04 11:23:41;;;;;;;5.68;3.80;;;28.10;46.10;;;;;;4973504;28;20045;-67
2022/09/04 11:26:28;;;;;;;5.25;3.40;;;28.10;46.10;;;;;;4989906;28;20498;-69
2022/09/04 11:29:02;;;;;;;5.63;3.72;;;28.10;46.40;;;;;;4989625;28;20145;-68
2022/09/04 11:31:51;;;;;;;5.88;4.13;;;28.20;46.40;;;;;;4989937;28;20038;-68
2022/09/04 11:34:43;;;;;;;5.70;4.25;;;28.10;45.60;;;;;;4969815;28;20464;-68
2022/09/04 11:37:15;;;;;;;4.55;2.92;;;28.10;44.30;;;;;;4931345;29;20409;-68
2022/09/04 11:40:10;;;;;;;7.03;4.93;;;28.20;46.10;;;;;;4931627;29;20035;-68
2022/09/04 11:42:48;;;;;;;6.70;3.80;;;28.20;45.40;;;;;;4931677;29;20075;-68
2022/09/04 11:45:40;;;;;;;5.28;3.92;;;28.10;47.00;;;;;;4901373;29;20048;-67
2022/09/04 11:48:43;;;;;;;6.40;3.72;;;28.20;47.10;;;;;;4931327;29;20446;-67
2022/09/04 11:51:40;;;;;;;6.18;2.95;;;28.20;47.00;;;;;;4931388;29;20047;-71
2022/09/04 11:54:15;;;;;;;5.78;3.65;;;28.20;47.30;;;;;;4931159;29;20040;-69
2022/09/04 11:57:15;;;;;;;5.43;3.38;;;28.00;46.10;;;;;;4931387;29;20043;-70
2022/09/04 11:59:49;;;;;;;3.90;3.13;;;28.20;47.40;;;;;;4932822;29;20086;-71
2022/09/04 12:02:41;;;;;;;6.18;3.78;;;28.20;47.40;;;;;;4918379;29;20135;-73
2022/09/04 12:05:17;;;;;;;7.25;3.67;;;28.20;47.10;;;;;;4918767;29;20059;-72
2022/09/04 12:08:20;;;;;;;4.90;3.47;;;28.30;47.50;;;;;;4917634;29;20079;-70
2022/09/04 12:11:18;;;;;;;4.63;3.58;;;28.20;47.30;;;;;;4885660;29;20045;-70
2022/09/04 12:14:00;;;;;;;5.97;3.50;;;28.10;46.50;;;;;;4922357;29;20154;-69
2022/09/04 12:17:09;;;;;;;5.28;3.33;;;28.20;47.60;;;;;;4956571;28;20050;-70
2022/09/04 12:20:06;;;;;;;4.35;3.45;;;28.10;47.40;;;;;;4956845;29;20054;-70
2022/09/04 12:22:40;;;;;;;5.03;3.40;;;28.20;47.20;;;;;;4956591;28;20387;-69
2022/09/04 12:25:19;;;;;;;4.47;3.85;;;28.20;47.60;;;;;;4958303;28;20042;-69
2022/09/04 12:28:36;;;;;;;6.07;3.83;;;28.20;47.10;;;;;;4956385;29;20400;-70
2022/09/04 12:31:20;;;;;;;5.38;3.72;;;28.20;45.80;;;;;;4956569;29;20492;-69
2022/09/04 12:34:17;;;;;;;5.78;3.33;;;28.10;46.70;;;;;;4940821;29;20103;-69
2022/09/04 12:37:10;;;;;;;5.28;3.40;;;28.20;47.80;;;;;;4956466;28;20107;-69
2022/09/04 12:40:00;;;;;;;4.72;3.40;;;28.10;47.80;;;;;;4956471;28;20046;-70
2022/09/04 12:42:46;;;;;;;4.63;3.63;;;28.10;44.90;;;;;;4980065;28;20476;-68
2022/09/04 12:45:37;;;;;;;5.13;3.40;;;28.10;47.00;;;;;;4956565;28;20043;-69
2022/09/04 12:48:32;;;;;;;6.30;3.88;;;28.10;47.70;;;;;;4970564;28;20138;-69
2022/09/04 12:51:16;;;;;;;5.22;3.17;;;28.20;47.40;;;;;;4975949;28;20039;-67
2022/09/04 12:54:11;;;;;;;4.72;3.30;;;28.10;47.70;;;;;;4975952;28;20042;-69
2022/09/04 12:57:15;;;;;;;4.95;3.55;;;28.20;47.30;;;;;;4975493;28;20158;-69
2022/09/04 13:00:14;;;;;;;5.80;3.05;;;28.00;47.60;;;;;;4921134;29;20520;-69
2022/09/04 13:03:16;;;;;;;5.20;3.38;;;28.10;48.00;;;;;;4936927;29;20054;-70
2022/09/04 13:05:55;;;;;;;5.87;3.20;;;28.20;48.10;;;;;;4931808;29;20044;-70
2022/09/04 13:08:26;;;;;;;4.45;3.30;;;28.20;48.10;;;;;;4917842;29;20490;-69
2022/09/04 13:11:23;;;;;;;4.70;3.55;;;28.10;48.10;;;;;;4915373;29;20067;-69
2022/09/04 13:14:30;;;;;;;4.75;3.60;;;28.10;43.60;;;;;;4914821;29;20119;-69
2022/09/04 13:17:02;;;;;;;5.63;3.78;;;28.00;46.90;;;;;;4839475;29;20526;-69
2022/09/04 13:19:59;;;;;;;6.43;3.63;;;28.10;47.00;;;;;;4840185;29;20152;-69
2022/09/04 13:22:49;;;;;;;6.45;3.10;;;28.00;48.10;;;;;;4859853;29;20061;-69
2022/09/04 13:25:36;;;;;;;4.18;3.58;;;28.00;48.40;;;;;;4877218;29;20040;-69
2022/09/04 13:28:43;;;;;;;6.88;3.15;;;28.00;48.10;;;;;;4877075;29;20068;-69
2022/09/04 13:31:18;;;;;;;3.75;2.90;;;28.00;48.10;;;;;;4877397;29;20060;-69
2022/09/04 13:33:52;;;;;;;5.40;3.22;;;28.00;48.30;;;;;;4877116;29;20048;-69
2022/09/04 13:36:54;;;;;;;5.20;3.35;;;28.00;48.40;;;;;;4912593;29;20861;-69
2022/09/04 13:39:43;;;;;;;5.20;3.00;;;28.00;48.40;;;;;;4914901;29;20058;-69
2022/09/04 13:42:24;;;;;;;2.97;2.40;;;28.10;48.40;;;;;;4914888;29;20036;-69
2022/09/04 13:45:10;;;;;;;10.15;3.08;;;28.10;48.50;;;;;;4914742;29;20040;-69
2022/09/04 13:47:50;;;;;;;3.95;2.90;;;28.00;48.60;;;;;;4898344;29;20052;-70
2022/09/04 13:50:54;;;;;;;3.80;2.97;;;28.00;48.60;;;;;;4914652;29;20509;-69
2022/09/04 13:53:26;;;;;;;4.65;2.67;;;27.90;45.20;;;;;;4962445;28;20053;-70
2022/09/04 13:55:58;;;;;;;3.15;2.35;;;28.00;48.00;;;;;;5009931;28;20065;-68
2022/09/04 13:58:32;;;;;;;2.95;2.00;;;28.10;48.60;;;;;;5013204;28;20049;-69
2022/09/04 14:01:01;;;;;;;3.05;2.03;;;28.00;48.80;;;;;;5013424;28;20029;-68
2022/09/04 14:03:33;;;;;;;2.38;1.73;;;28.00;48.80;;;;;;5026655;28;20026;-70
2022/09/04 14:06:04;;;;;;;2.45;1.98;;;28.00;48.60;;;;;;5010751;28;20045;-70
2022/09/04 14:08:33;;;;;;;2.67;1.77;;;28.00;48.70;;;;;;5009464;28;20104;-70
2022/09/04 14:11:19;;;;;;;5.88;2.25;;;28.00;48.80;;;;;;5009846;28;20045;-70
2022/09/04 14:13:57;;;;;;;2.30;1.90;;;28.00;47.80;;;;;;5010461;28;20113;-72
2022/09/04 14:16:24;;;;;;;2.75;1.50;;;28.00;48.80;;;;;;5009198;28;20446;-69
2022/09/04 14:18:54;;;;;;;2.78;1.85;;;27.90;48.10;;;;;;5009182;28;20202;-70
2022/09/04 14:21:32;;;;;;;2.83;1.73;;;28.00;47.90;;;;;;5009490;28;20398;-70
2022/09/04 14:24:40;;;;;;;2.92;1.75;;;28.00;48.60;;;;;;5010245;28;20037;-69
2022/09/04 14:27:40;;;;;;;3.53;1.98;;;28.10;47.90;;;;;;4987752;28;20515;-71
2022/09/04 14:30:21;;;;;;;1.50;1.40;;;27.90;47.90;;;;;;4987973;28;20150;-70